Time;durP1;ratioP1;P1;durP2;ratioP2;P2;SDS_P1;SDS_P2;PMS_P1;PMS_P2;Temp;Humidity;BMP_temperature;BMP_pressure;BME280_temperature;BME280_humidity;BME280_pressure;Samples;Min_cycle;Max_cycle;Signal;HPM_P1;HPM_P2
2022/12/03 00:03:00;;;;;;;60.52;28.38;;;;;;;-2.35;80.89;101794.34;3381081;82;22302;-72
2022/12/03 00:07:51;;;;;;;52.90;26.12;;;;;;;-2.34;80.68;101790.66;3321594;82;20962;-73
2022/12/03 00:12:46;;;;;;;59.25;26.60;;;;;;;-2.34;80.69;101788.11;3374837;82;21085;-72
2022/12/03 00:17:37;;;;;;;51.53;24.10;;;;;;;-2.34;80.67;101774.10;3333841;82;21041;-72
2022/12/03 00:22:28;;;;;;;64.27;28.62;;;;;;;-2.32;80.77;101772.57;3326032;82;21075;-72
2022/12/03 00:27:19;;;;;;;59.73;29.95;;;;;;;-2.28;80.70;101779.21;3385479;82;21704;-72
2022/12/03 00:32:10;;;;;;;60.58;27.77;;;;;;;-2.28;80.62;101770.30;3372948;82;21232;-72
2022/12/03 00:37:01;;;;;;;51.28;25.60;;;;;;;-2.26;80.63;101768.38;3364276;82;21010;-72
2022/12/03 00:41:52;;;;;;;57.00;27.37;;;;;;;-2.24;80.66;101765.96;3417371;81;21565;-73
2022/12/03 00:46:43;;;;;;;52.98;24.95;;;;;;;-2.25;80.52;101775.63;3301934;82;23365;-73
2022/12/03 00:51:34;;;;;;;45.60;23.38;;;;;;;-2.23;80.67;101769.03;3340780;83;20999;-73
2022/12/03 00:56:25;;;;;;;52.58;26.90;;;;;;;-2.25;80.45;101766.71;3255863;84;20983;-71
2022/12/03 01:01:20;;;;;;;56.95;25.75;;;;;;;-2.27;80.54;101756.77;3366035;82;20913;-74
2022/12/03 01:06:11;;;;;;;48.20;23.07;;;;;;;-2.25;80.62;101759.06;3369377;82;20934;-71
2022/12/03 01:11:03;;;;;;;53.00;27.27;;;;;;;-2.23;80.59;101755.02;3368963;82;21253;-72
2022/12/03 01:15:54;;;;;;;52.27;25.55;;;;;;;-2.23;80.63;101762.28;3376576;82;20914;-71
2022/12/03 01:20:45;;;;;;;50.23;24.07;;;;;;;-2.21;80.64;101763.69;3349548;82;21476;-71
2022/12/03 01:25:37;;;;;;;48.45;24.75;;;;;;;-2.21;80.57;101757.31;3350723;82;21770;-72
2022/12/03 01:30:28;;;;;;;43.83;22.93;;;;;;;-2.21;80.55;101751.83;3412615;82;21029;-72
2022/12/03 01:35:19;;;;;;;48.15;25.35;;;;;;;-2.23;80.50;101757.18;3401803;82;22266;-72
2022/12/03 01:40:15;;;;;;;45.05;24.75;;;;;;;-2.24;80.58;101742.64;3345563;82;21542;-72
2022/12/03 01:45:14;;;;;;;52.10;24.90;;;;;;;-2.21;80.62;101748.39;3413128;82;21392;-72
2022/12/03 01:50:20;;;;;;;44.10;22.75;;;;;;;-2.20;80.57;101747.61;3407312;82;20963;-72
2022/12/03 01:55:23;;;;;;;43.40;22.27;;;;;;;-2.23;80.47;101743.56;3409628;82;22117;-72
2022/12/03 02:00:19;;;;;;;42.03;22.95;;;;;;;-2.24;80.51;101744.31;3429348;82;21206;-72
2022/12/03 02:05:22;;;;;;;44.30;22.05;;;;;;;-2.22;80.50;101752.97;3415644;82;21080;-71
2022/12/03 02:10:16;;;;;;;42.35;22.30;;;;;;;-2.23;80.42;101752.08;3390113;82;20961;-72
2022/12/03 02:15:09;;;;;;;38.88;22.67;;;;;;;-2.19;80.49;101750.69;3409740;82;20895;-71
2022/12/03 02:20:05;;;;;;;39.13;20.62;;;;;;;-2.19;80.38;101749.41;3403110;82;20871;-72
2022/12/03 02:25:22;;;;;;;35.38;22.05;;;;;;;-2.19;80.38;101749.41;3390973;82;20937;-72
2022/12/03 02:30:19;;;;;;;35.55;20.70;;;;;;;-2.19;80.22;101742.66;3397858;82;20973;-72
2022/12/03 02:35:21;;;;;;;43.28;23.00;;;;;;;-2.17;80.19;101742.79;3360165;82;20984;-72
2022/12/03 02:40:22;;;;;;;38.50;22.93;;;;;;;-2.15;80.17;101745.08;3389699;82;21527;-72
2022/12/03 02:45:24;;;;;;;36.58;20.65;;;;;;;-2.15;80.11;101745.08;3397167;82;20922;-72
2022/12/03 02:50:19;;;;;;;38.88;21.97;;;;;;;-2.14;80.14;101745.61;3387437;83;21095;-72
2022/12/03 02:55:13;;;;;;;34.80;20.75;;;;;;;-2.15;80.14;101755.27;3384584;83;21013;-72
2022/12/03 03:00:07;;;;;;;33.78;19.48;;;;;;;-2.14;80.08;101754.52;3356819;83;20962;-72
2022/12/03 03:04:59;;;;;;;35.08;21.17;;;;;;;-2.10;80.22;101750.19;3324351;83;21038;-72
2022/12/03 03:09:50;;;;;;;33.40;19.92;;;;;;;-2.06;80.20;101752.61;3347506;83;20908;-72
2022/12/03 03:14:41;;;;;;;32.15;19.92;;;;;;;-2.05;80.13;101750.20;3394187;83;21120;-71
2022/12/03 03:19:32;;;;;;;30.27;19.42;;;;;;;-2.02;80.16;101747.00;3358095;83;21287;-72
2022/12/03 03:24:24;;;;;;;33.67;21.93;;;;;;;-2.03;79.97;101746.11;3353735;83;20995;-72
2022/12/03 03:29:16;;;;;;;34.75;19.75;;;;;;;-2.03;80.16;101744.84;3360951;83;20959;-72
2022/12/03 03:34:07;;;;;;;33.18;20.32;;;;;;;-2.03;79.98;101739.74;3362285;83;20975;-72
2022/12/03 03:38:58;;;;;;;36.90;19.50;;;;;;;-2.04;79.93;101739.25;3338639;83;21849;-72
2022/12/03 03:43:50;;;;;;;37.28;21.50;;;;;;;-2.05;79.85;101737.84;3308736;83;21783;-71
2022/12/03 03:48:43;;;;;;;38.38;21.87;;;;;;;-2.05;79.84;101740.00;3327807;82;21010;-72
2022/12/03 03:53:39;;;;;;;36.80;21.80;;;;;;;-2.04;79.83;101737.06;3362787;82;20941;-72
2022/12/03 03:58:31;;;;;;;33.70;20.20;;;;;;;-2.04;79.71;101736.70;3422983;82;20887;-72
2022/12/03 04:03:22;;;;;;;36.23;19.73;;;;;;;-2.03;79.84;101733.38;3378938;82;22359;-72
2022/12/03 04:08:13;;;;;;;36.00;21.48;;;;;;;-2.01;79.70;101715.27;3423100;82;20977;-73
2022/12/03 04:13:05;;;;;;;36.53;21.25;;;;;;;-2.01;79.70;101715.27;3407617;82;21551;-72
2022/12/03 04:23:06;;;;;;;36.33;20.57;;;;;;;-1.96;79.92;101730.96;3393375;82;20979;-72
2022/12/03 04:28:57;;;;;;;36.08;21.52;;;;;;;-1.96;79.81;101734.39;3343529;82;22018;-71
2022/12/03 04:38:14;;;;;;;38.20;20.90;;;;;;;-1.96;79.76;101736.94;3405129;82;20938;-71
2022/12/03 04:43:05;;;;;;;37.33;21.75;;;;;;;-1.94;79.71;101721.39;3401715;82;20961;-70
2022/12/03 04:47:56;;;;;;;33.73;19.77;;;;;;;-1.97;79.68;101712.23;3391392;83;21025;-70
2022/12/03 04:52:47;;;;;;;31.77;20.55;;;;;;;-1.97;79.73;101712.23;3314596;83;21025;-70
2022/12/03 04:57:38;;;;;;;32.20;20.43;;;;;;;-1.92;79.80;101717.70;3382525;83;20947;-71
2022/12/03 05:02:29;;;;;;;33.38;19.30;;;;;;;-1.93;79.73;101710.83;3377347;83;21753;-71
2022/12/03 05:07:20;;;;;;;32.33;20.52;;;;;;;-1.95;79.62;101718.34;3342080;82;20987;-71
2022/12/03 05:12:11;;;;;;;32.45;18.85;;;;;;;-1.96;79.74;101710.18;3382074;83;21612;-71
2022/12/03 05:17:02;;;;;;;34.58;20.35;;;;;;;-1.93;79.71;101718.09;3308365;83;21069;-71
2022/12/03 05:21:53;;;;;;;34.10;19.67;;;;;;;-1.90;79.65;101716.55;3362926;83;21010;-71
2022/12/03 05:26:44;;;;;;;30.60;18.82;;;;;;;-1.90;79.56;101710.18;3350009;83;21461;-71
2022/12/03 05:31:35;;;;;;;34.08;19.85;;;;;;;-1.92;79.61;101712.20;3306088;83;21029;-71
2022/12/03 05:36:27;;;;;;;31.55;18.92;;;;;;;-1.90;79.66;101701.26;3321315;83;21485;-71
2022/12/03 05:46:27;;;;;;;32.35;20.00;;;;;;;-1.83;79.80;101704.43;3343973;83;21575;-71
2022/12/03 05:51:19;;;;;;;32.63;19.42;;;;;;;-1.80;79.69;101708.91;3348885;82;21487;-71
2022/12/03 05:56:10;;;;;;;31.57;18.67;;;;;;;-1.81;79.61;101699.47;3315586;82;21096;-71
2022/12/03 06:01:01;;;;;;;29.80;18.87;;;;;;;-1.79;79.71;101703.03;3351513;82;21077;-72
2022/12/03 06:05:52;;;;;;;32.73;18.95;;;;;;;-1.77;79.64;101693.84;3380945;82;20966;-71
2022/12/03 06:10:43;;;;;;;31.48;18.77;;;;;;;-1.75;79.75;101694.89;3401014;82;21038;-71
2022/12/03 06:15:34;;;;;;;27.93;18.77;;;;;;;-1.78;79.63;101692.08;3366002;82;21101;-71
2022/12/03 06:20:25;;;;;;;35.13;18.85;;;;;;;-1.79;79.64;101692.83;3331462;82;20974;-71
2022/12/03 06:25:16;;;;;;;34.38;18.85;;;;;;;-1.77;79.78;101695.11;3379462;82;27192;-71
2022/12/03 06:30:10;;;;;;;30.08;18.60;;;;;;;-1.74;79.89;101696.66;3368118;82;21261;-71
2022/12/03 06:35:02;;;;;;;31.87;19.32;;;;;;;-1.71;79.87;101693.09;3371143;82;21002;-71
2022/12/03 06:39:53;;;;;;;28.02;17.12;;;;;;;-1.69;79.85;101703.42;3404422;82;21468;-72
2022/12/03 06:44:44;;;;;;;33.10;20.50;;;;;;;-1.69;79.96;101694.09;3346518;82;21556;-71
2022/12/03 06:49:35;;;;;;;28.32;17.27;;;;;;;-1.69;80.03;101695.38;3347090;82;21189;-71
2022/12/03 06:54:26;;;;;;;26.12;17.27;;;;;;;-1.66;80.15;101702.01;3341416;83;22096;-71
2022/12/03 06:59:17;;;;;;;29.25;18.20;;;;;;;-1.65;80.14;101712.70;3304621;83;21546;-72
2022/12/03 07:04:08;;;;;;;30.05;19.57;;;;;;;-1.62;80.28;101715.52;3304694;83;21006;-71
2022/12/03 07:08:59;;;;;;;28.50;18.10;;;;;;;-1.60;80.40;101712.70;3332839;83;21050;-71
2022/12/03 07:13:52;;;;;;;28.73;17.92;;;;;;;-1.58;80.51;101714.98;3327663;83;21194;-71
2022/12/03 07:18:43;;;;;;;30.00;18.87;;;;;;;-1.54;80.56;101722.14;3349786;83;21006;-71
2022/12/03 07:23:35;;;;;;;32.40;20.50;;;;;;;-1.50;80.61;101727.47;3317426;83;21050;-71
2022/12/03 07:28:26;;;;;;;30.00;17.90;;;;;;;-1.46;80.62;101725.31;3335406;83;21007;-71
2022/12/03 07:33:17;;;;;;;33.23;19.42;;;;;;;-1.45;80.57;101724.91;3331966;83;21006;-71
2022/12/03 07:38:08;;;;;;;30.55;19.35;;;;;;;-1.44;80.64;101708.47;3335140;83;21943;-71
2022/12/03 07:42:59;;;;;;;25.90;17.75;;;;;;;-1.39;80.68;101705.02;3334504;83;21080;-71
2022/12/03 07:47:50;;;;;;;28.80;18.12;;;;;;;-1.38;80.74;101710.61;3354710;82;20995;-71
2022/12/03 07:52:41;;;;;;;30.23;18.73;;;;;;;-1.34;80.79;101703.73;3352026;83;21591;-71
2022/12/03 07:57:32;;;;;;;28.60;18.73;;;;;;;-1.32;80.82;101697.45;3367967;83;21074;-71
2022/12/03 08:02:23;;;;;;;30.65;19.92;;;;;;;-1.29;80.90;101703.70;3364660;83;20990;-71
2022/12/03 08:07:14;;;;;;;31.33;19.67;;;;;;;-1.27;80.95;101702.19;3323042;83;20982;-71
2022/12/03 08:12:13;;;;;;;32.00;20.32;;;;;;;-1.25;81.02;101697.17;3390952;83;21217;-71
2022/12/03 08:17:10;;;;;;;27.58;17.65;;;;;;;-1.23;81.12;101700.77;3386865;83;20971;-71
2022/12/03 08:22:01;;;;;;;26.65;18.05;;;;;;;-1.21;81.11;101701.78;3352327;83;20975;-71
2022/12/03 08:26:52;;;;;;;30.30;17.50;;;;;;;-1.17;81.10;101702.52;3312863;83;27121;-72
2022/12/03 08:31:53;;;;;;;27.25;18.40;;;;;;;-1.13;81.19;101701.11;3360615;83;21271;-73
2022/12/03 08:36:47;;;;;;;27.02;18.42;;;;;;;-1.08;81.24;101707.47;3353346;83;21064;-73
2022/12/03 08:46:52;;;;;;;32.35;20.70;;;;;;;-1.03;81.31;101701.95;3367533;83;21221;-73
2022/12/03 08:51:44;;;;;;;28.42;19.37;;;;;;;-0.94;81.36;101702.20;3337863;83;20952;-74
2022/12/03 08:56:36;;;;;;;27.70;20.77;;;;;;;-0.88;81.33;101710.32;3318713;83;21513;-74
2022/12/03 09:01:32;;;;;;;29.12;18.87;;;;;;;-0.81;81.35;101709.64;3366654;83;20995;-74
2022/12/03 09:06:23;;;;;;;26.80;18.20;;;;;;;-0.73;81.23;101692.39;3379059;83;21026;-74
2022/12/03 09:11:15;;;;;;;27.75;18.20;;;;;;;-0.67;81.19;101688.13;3367805;83;21459;-73
2022/12/03 09:16:07;;;;;;;28.90;19.60;;;;;;;-0.63;81.11;101686.31;3331689;83;21501;-73
2022/12/03 09:20:58;;;;;;;25.10;17.52;;;;;;;-0.62;81.15;101676.61;3354900;83;21171;-74
2022/12/03 09:25:49;;;;;;;27.13;18.17;;;;;;;-0.56;81.07;101678.75;3334050;83;21401;-74
2022/12/03 09:30:40;;;;;;;28.35;18.82;;;;;;;-0.47;80.97;101676.89;3340353;82;21010;-71
2022/12/03 09:35:31;;;;;;;27.65;18.60;;;;;;;-0.33;80.93;101683.06;3331804;83;21034;-72
2022/12/03 09:40:22;;;;;;;28.42;20.57;;;;;;;-0.30;80.68;101667.58;3338290;83;21472;-71
2022/12/03 09:45:15;;;;;;;24.52;17.98;;;;;;;-0.24;80.86;101665.88;3344521;83;21043;-71
2022/12/03 09:50:12;;;;;;;30.90;19.10;;;;;;;-0.20;80.75;101662.76;3330763;81;20984;-71
2022/12/03 09:55:09;;;;;;;29.42;19.45;;;;;;;-0.19;80.86;101659.45;3373209;83;21274;-71
2022/12/03 10:00:00;;;;;;;31.73;20.37;;;;;;;-0.14;80.87;101658.13;3370671;83;28710;-71
2022/12/03 10:04:52;;;;;;;30.75;18.95;;;;;;;-0.10;80.94;101660.13;3358061;83;26463;-71
2022/12/03 10:09:44;;;;;;;27.58;17.65;;;;;;;-0.05;80.93;101662.64;3350977;83;22076;-71
2022/12/03 10:14:35;;;;;;;36.58;20.62;;;;;;;0.04;80.89;101665.40;3364452;83;22372;-71
2022/12/03 10:19:34;;;;;;;29.82;19.98;;;;;;;0.16;80.73;101657.33;3373060;83;21564;-72
2022/12/03 10:24:34;;;;;;;31.50;19.92;;;;;;;0.41;80.58;101650.19;3339998;83;20987;-72
2022/12/03 10:29:28;;;;;;;31.45;21.20;;;;;;;0.70;80.11;101640.39;3339920;83;20999;-71
2022/12/03 10:34:25;;;;;;;30.37;19.37;;;;;;;0.91;79.81;101635.91;3366223;83;21011;-71
2022/12/03 10:39:16;;;;;;;33.85;21.73;;;;;;;1.06;79.38;101650.17;3347946;83;21552;-72
2022/12/03 10:44:21;;;;;;;30.10;20.23;;;;;;;0.94;79.55;101640.34;3320682;83;21062;-72
2022/12/03 10:49:18;;;;;;;30.30;20.02;;;;;;;0.98;79.66;101639.77;3343074;83;20994;-72
2022/12/03 10:54:22;;;;;;;32.35;18.92;;;;;;;0.98;79.78;101641.05;3327559;82;21252;-71
2022/12/03 10:59:18;;;;;;;31.20;20.80;;;;;;;0.92;79.54;101634.23;3350861;82;21203;-72
2022/12/03 11:04:15;;;;;;;32.93;21.42;;;;;;;0.84;79.81;101632.42;3350282;82;21040;-72
2022/12/03 11:09:20;;;;;;;34.60;21.77;;;;;;;0.80;79.86;101630.80;3415521;82;21464;-71
2022/12/03 11:14:11;;;;;;;35.03;20.77;;;;;;;0.76;79.92;101634.41;3385423;82;21503;-71
2022/12/03 11:19:03;;;;;;;27.17;18.70;;;;;;;0.76;79.99;101622.89;3354656;82;21010;-71
2022/12/03 11:24:01;;;;;;;32.48;22.17;;;;;;;0.79;80.22;101619.67;3398145;81;21877;-71
2022/12/03 11:28:57;;;;;;;31.30;21.40;;;;;;;0.79;80.23;101627.36;3380838;81;20951;-72
2022/12/03 11:33:48;;;;;;;35.15;23.12;;;;;;;0.80;80.30;101624.00;3386175;82;20970;-72
2022/12/03 11:38:50;;;;;;;26.80;17.32;;;;;;;0.79;80.33;101626.45;3380940;82;21649;-71
2022/12/03 11:44:01;;;;;;;30.60;20.02;;;;;;;0.78;80.40;101617.00;3403460;83;20982;-72
2022/12/03 11:48:58;;;;;;;32.17;21.68;;;;;;;0.75;80.51;101624.05;3382979;82;21018;-71
2022/12/03 11:53:52;;;;;;;35.00;22.25;;;;;;;0.74;80.62;101625.73;3375637;82;20982;-72
2022/12/03 11:58:45;;;;;;;34.50;21.70;;;;;;;0.73;80.64;101620.50;3335325;82;20986;-72
2022/12/03 12:03:47;;;;;;;40.75;21.68;;;;;;;0.72;80.58;101610.66;3403871;82;21472;-72
2022/12/03 12:08:52;;;;;;;35.63;20.37;;;;;;;0.76;80.61;101599.85;3314414;82;21586;-72
2022/12/03 12:13:57;;;;;;;39.23;23.90;;;;;;;0.79;80.58;101612.00;3409948;82;21409;-72
2022/12/03 12:18:50;;;;;;;41.80;24.85;;;;;;;0.76;80.64;101618.17;3351572;82;21452;-72
2022/12/03 12:23:41;;;;;;;38.70;22.60;;;;;;;0.83;80.71;101606.70;3371429;82;20993;-71
2022/12/03 12:28:32;;;;;;;44.60;23.55;;;;;;;0.84;80.59;101593.09;3409748;82;20974;-72
2022/12/03 12:33:27;;;;;;;41.10;25.80;;;;;;;0.88;80.55;101592.56;3373675;82;22417;-73
2022/12/03 12:38:21;;;;;;;44.67;24.32;;;;;;;0.90;80.69;101596.11;3348060;82;22895;-73
2022/12/03 12:43:31;;;;;;;39.42;24.45;;;;;;;0.92;80.65;101596.70;3343517;83;20978;-73
2022/12/03 12:48:30;;;;;;;41.18;24.27;;;;;;;0.91;80.67;101589.82;3404442;82;21001;-73
2022/12/03 12:53:29;;;;;;;36.28;22.20;;;;;;;0.91;80.81;101585.06;3363734;83;21014;-72
2022/12/03 12:58:21;;;;;;;39.08;22.90;;;;;;;0.93;80.87;101585.69;3369616;83;21568;-72
2022/12/03 13:03:16;;;;;;;42.05;24.75;;;;;;;0.92;80.89;101582.62;3367289;83;21568;-73
2022/12/03 13:08:25;;;;;;;41.88;24.35;;;;;;;0.95;80.97;101579.40;3341319;83;20935;-73
2022/12/03 13:13:24;;;;;;;34.13;20.27;;;;;;;0.95;80.91;101581.56;3357829;83;20979;-72
2022/12/03 13:18:26;;;;;;;36.13;22.50;;;;;;;1.06;81.07;101575.90;3361052;83;20981;-73
2022/12/03 13:23:31;;;;;;;41.98;24.77;;;;;;;1.09;81.08;101579.95;3358182;83;21349;-72
2022/12/03 13:28:23;;;;;;;38.38;25.05;;;;;;;1.06;81.19;101593.83;3356069;83;21198;-73
2022/12/03 13:34:01;;;;;;;41.42;24.80;;;;;;;1.03;81.24;101597.45;3352065;83;20965;-73
2022/12/03 13:38:56;;;;;;;45.25;25.80;;;;;;;1.00;81.30;101608.75;3400619;82;21097;-73
2022/12/03 13:43:52;;;;;;;39.65;25.35;;;;;;;0.97;81.42;101607.64;3358856;82;20951;-72
2022/12/03 13:48:44;;;;;;;42.80;22.93;;;;;;;0.92;81.41;101604.38;3360688;82;20979;-73
2022/12/03 13:53:41;;;;;;;41.92;22.93;;;;;;;0.88;81.51;101604.95;3397338;82;21641;-72
2022/12/03 13:58:31;;;;;;;37.07;23.07;;;;;;;0.86;81.65;101603.05;3451842;81;21063;-72
2022/12/03 14:03:22;;;;;;;42.40;24.20;;;;;;;0.83;81.61;101607.98;3278050;84;22367;-72
2022/12/03 14:08:13;;;;;;;41.95;24.47;;;;;;;0.80;81.74;101600.08;3406987;81;20987;-73
2022/12/03 14:13:05;;;;;;;44.08;26.50;;;;;;;0.80;81.84;101608.64;3397154;81;21070;-75
2022/12/03 14:17:56;;;;;;;44.13;25.50;;;;;;;0.78;81.92;101607.64;3400169;81;21127;-72
2022/12/03 14:22:47;;;;;;;44.27;26.33;;;;;;;0.80;82.00;101618.00;3362870;83;21149;-73
2022/12/03 14:27:39;;;;;;;47.62;27.48;;;;;;;0.79;82.00;101626.45;3324034;84;21767;-73
2022/12/03 14:32:30;;;;;;;42.70;26.10;;;;;;;0.79;82.10;101616.20;3355072;83;21037;-72
2022/12/03 14:37:21;;;;;;;42.10;24.32;;;;;;;0.79;82.23;101609.80;3320355;84;21360;-73
2022/12/03 14:42:12;;;;;;;46.90;25.35;;;;;;;0.78;82.24;101604.20;3315013;83;22479;-72
2022/12/03 14:47:03;;;;;;;44.67;26.33;;;;;;;0.75;82.34;101600.66;3347022;82;20991;-73
2022/12/03 14:51:54;;;;;;;47.67;26.15;;;;;;;0.71;82.38;101606.31;3369601;83;20983;-72
2022/12/03 14:56:45;;;;;;;47.13;26.15;;;;;;;0.69;82.49;101610.44;3359669;83;21755;-72
2022/12/03 15:01:36;;;;;;;51.25;27.75;;;;;;;0.70;82.68;101610.95;3369164;83;20935;-72
2022/12/03 15:06:27;;;;;;;48.70;27.73;;;;;;;0.70;82.72;101607.11;3342483;83;20991;-72
2022/12/03 15:11:18;;;;;;;50.17;28.15;;;;;;;0.70;82.75;101601.99;3305707;84;21027;-72
2022/12/03 15:16:09;;;;;;;46.35;28.00;;;;;;;0.70;82.86;101612.63;3320926;84;22201;-72
2022/12/03 15:21:01;;;;;;;47.30;27.55;;;;;;;0.70;83.01;101628.87;3298319;83;20984;-73
2022/12/03 15:25:52;;;;;;;47.27;26.90;;;;;;;0.70;83.04;101630.16;3311604;84;20967;-72
2022/12/03 15:30:43;;;;;;;47.13;28.42;;;;;;;0.70;83.02;101633.98;3304750;83;21124;-72
2022/12/03 15:35:34;;;;;;;52.33;31.17;;;;;;;0.72;83.08;101636.27;3304129;84;21481;-72
2022/12/03 15:40:26;;;;;;;50.60;27.25;;;;;;;0.74;83.22;101634.70;3292675;84;22241;-72
2022/12/03 15:45:17;;;;;;;52.93;29.77;;;;;;;0.74;83.22;101633.42;3303643;84;21718;-73
2022/12/03 15:50:09;;;;;;;48.52;25.82;;;;;;;0.74;83.22;101629.58;3319549;83;21549;-73
2022/12/03 15:55:00;;;;;;;47.20;26.05;;;;;;;0.76;83.36;101649.77;3309729;83;23629;-73
2022/12/03 15:59:51;;;;;;;56.33;31.12;;;;;;;0.75;83.31;101652.22;3337058;83;20991;-73
2022/12/03 16:04:42;;;;;;;50.08;30.25;;;;;;;0.72;83.46;101649.06;3338283;83;20963;-72
2022/12/03 16:09:33;;;;;;;56.55;29.12;;;;;;;0.71;83.42;101654.95;3278885;83;20960;-73
2022/12/03 16:14:25;;;;;;;55.43;29.98;;;;;;;0.72;83.59;101660.58;3344951;84;21026;-72
2022/12/03 16:19:16;;;;;;;53.63;28.65;;;;;;;0.74;83.71;101660.70;3299141;84;20994;-73
2022/12/03 16:24:07;;;;;;;57.60;29.27;;;;;;;0.76;83.73;101657.85;3264980;83;20982;-74
2022/12/03 16:28:58;;;;;;;54.70;29.75;;;;;;;0.73;83.73;101665.30;3303237;83;21050;-73
2022/12/03 16:33:49;;;;;;;63.68;35.30;;;;;;;0.74;83.84;101659.41;3324813;83;21018;-73
2022/12/03 16:38:41;;;;;;;60.15;32.95;;;;;;;0.76;84.06;101662.58;3309926;83;20999;-73
2022/12/03 16:43:37;;;;;;;53.10;30.27;;;;;;;0.78;84.08;101669.48;3299916;83;21030;-72
2022/12/03 16:48:25;;;;;;;55.15;29.40;;;;;;;0.78;84.16;101672.92;3317352;83;21077;-72
2022/12/03 16:53:16;;;;;;;58.28;31.65;;;;;;;0.78;84.16;101673.33;3333592;83;20892;-72
2022/12/03 16:58:07;;;;;;;56.68;31.20;;;;;;;0.79;84.23;101681.13;3315678;83;21026;-73
2022/12/03 17:02:59;;;;;;;67.85;34.00;;;;;;;0.80;84.26;101671.77;3252442;85;21039;-73
2022/12/03 17:07:50;;;;;;;60.70;33.70;;;;;;;0.82;84.31;101677.87;3313665;84;20990;-73
2022/12/03 17:12:42;;;;;;;64.53;32.73;;;;;;;0.80;84.37;101680.32;3252317;85;20971;-73
2022/12/03 17:17:33;;;;;;;68.80;32.95;;;;;;;0.80;84.46;101671.77;3260966;84;20979;-72
2022/12/03 17:22:25;;;;;;;66.20;35.83;;;;;;;0.81;84.50;101671.00;3258653;84;21298;-75
2022/12/03 17:27:19;;;;;;;66.72;33.38;;;;;;;0.83;84.59;101668.15;3281810;85;21671;-73
2022/12/03 17:32:09;;;;;;;62.13;33.25;;;;;;;0.82;84.53;101660.84;3324867;84;21050;-73
2022/12/03 17:37:01;;;;;;;65.55;36.30;;;;;;;0.83;84.62;101646.39;3275251;85;21639;-73
2022/12/03 17:41:52;;;;;;;66.53;35.95;;;;;;;0.84;84.73;101650.70;3260602;84;22275;-74
2022/12/03 17:46:43;;;;;;;74.07;37.55;;;;;;;0.85;84.79;101662.74;3294557;84;21031;-73
2022/12/03 17:51:34;;;;;;;72.00;36.60;;;;;;;0.86;84.87;101661.94;3303151;84;21106;-73
2022/12/03 17:56:25;;;;;;;68.92;37.00;;;;;;;0.85;84.82;101662.74;3280085;85;20995;-73
2022/12/03 18:01:16;;;;;;;67.55;34.38;;;;;;;0.86;84.87;101661.94;3241585;85;21023;-73
2022/12/03 18:06:07;;;;;;;63.63;35.52;;;;;;;0.87;84.96;101670.14;3284739;85;21035;-74
2022/12/03 18:10:58;;;;;;;65.17;34.73;;;;;;;0.87;84.92;101667.58;3301718;85;21731;-74
2022/12/03 18:15:49;;;;;;;68.07;35.10;;;;;;;0.86;84.92;101667.06;3244067;85;21027;-74
2022/12/03 18:20:40;;;;;;;61.45;33.28;;;;;;;0.88;84.96;101673.21;3278507;85;21065;-74
2022/12/03 18:25:32;;;;;;;57.65;32.25;;;;;;;0.88;84.95;101661.69;3254080;85;21058;-74
2022/12/03 18:30:23;;;;;;;62.50;34.08;;;;;;;0.88;84.91;101662.97;3275930;85;21047;-74
2022/12/03 18:35:14;;;;;;;67.90;35.80;;;;;;;0.87;84.96;101662.05;3255933;85;21046;-74
2022/12/03 18:40:07;;;;;;;64.77;33.83;;;;;;;0.88;84.96;101664.25;3285535;85;21035;-73
2022/12/03 18:44:58;;;;;;;63.70;35.10;;;;;;;0.89;85.03;101669.84;3297411;85;21544;-74
2022/12/03 18:49:50;;;;;;;67.08;35.85;;;;;;;0.89;85.02;101667.29;3300920;85;21590;-74
2022/12/03 18:54:41;;;;;;;63.75;33.70;;;;;;;0.89;84.98;101664.73;3252025;85;21154;-74
2022/12/03 18:59:32;;;;;;;63.85;33.05;;;;;;;0.89;85.00;101663.45;3291429;85;21039;-74
2022/12/03 19:04:24;;;;;;;70.03;35.80;;;;;;;0.90;85.06;101663.97;3245766;85;22075;-73
2022/12/03 19:09:16;;;;;;;64.92;35.68;;;;;;;0.92;85.10;101661.12;3263953;85;21505;-73
2022/12/03 19:14:09;;;;;;;61.30;34.75;;;;;;;0.91;85.08;101663.16;3348573;82;33939;-73
2022/12/03 19:19:00;;;;;;;66.02;34.78;;;;;;;0.92;85.11;101667.12;3348894;83;21042;-73
2022/12/03 19:23:51;;;;;;;66.05;35.20;;;;;;;0.93;85.10;101668.00;3368995;83;21010;-73
2022/12/03 19:29:15;;;;;;;;;;;;;;;;;;;;;
2022/12/03 19:34:00;;;;;;;66.70;34.83;;;;;;;0.94;85.14;101676.20;3361937;81;21034;-73
2022/12/03 19:38:55;;;;;;;64.75;33.70;;;;;;;0.94;85.21;101674.52;3372056;83;20950;-73
2022/12/03 19:43:51;;;;;;;67.53;33.70;;;;;;;0.96;85.25;101659.27;3372631;83;20969;-72
2022/12/03 19:48:42;;;;;;;67.53;35.88;;;;;;;0.97;85.31;101663.62;3341742;83;20999;-72
2022/12/03 19:53:35;;;;;;;70.67;35.90;;;;;;;0.96;85.29;101656.70;3365819;83;20970;-73
2022/12/03 19:58:26;;;;;;;68.65;35.98;;;;;;;0.97;85.32;101655.94;3335616;83;21219;-73
2022/12/03 20:03:17;;;;;;;68.25;32.80;;;;;;;0.99;85.35;101648.37;3337071;83;20947;-73
2022/12/03 20:08:09;;;;;;;78.12;35.92;;;;;;;0.99;85.40;101646.69;3340314;83;21465;-73
2022/12/03 20:13:00;;;;;;;67.85;34.30;;;;;;;1.00;85.39;101654.84;3400779;82;21061;-73
2022/12/03 20:17:51;;;;;;;63.73;32.00;;;;;;;1.02;85.50;101661.36;3350930;83;21002;-73
2022/12/03 20:22:43;;;;;;;66.30;35.05;;;;;;;1.03;85.49;101666.59;3328167;83;21042;-74
2022/12/03 20:27:34;;;;;;;68.62;35.45;;;;;;;1.03;85.58;101660.20;3297954;83;21644;-74
2022/12/03 20:32:25;;;;;;;54.90;26.25;;;;;;;1.02;85.46;101665.20;3339516;83;22261;-73
2022/12/03 20:37:22;;;;;;;67.53;32.05;;;;;;;1.03;85.61;101659.31;3317871;83;20927;-73
2022/12/03 20:42:13;;;;;;;63.92;31.65;;;;;;;1.01;85.55;101651.92;3312734;83;21028;-72
2022/12/03 20:47:04;;;;;;;68.52;34.67;;;;;;;1.01;85.56;101662.16;3306863;84;21011;-73
2022/12/03 20:51:56;;;;;;;63.68;34.45;;;;;;;0.99;85.57;101663.33;3312356;83;21036;-73
2022/12/03 20:56:47;;;;;;;69.35;33.58;;;;;;;1.01;85.62;101666.88;3328993;82;21417;-73
2022/12/03 21:01:40;;;;;;;71.95;34.40;;;;;;;1.01;85.60;101657.92;3359511;82;20982;-73
2022/12/03 21:06:34;;;;;;;66.67;34.80;;;;;;;1.03;85.65;101664.03;3406668;82;20961;-73
2022/12/03 21:11:29;;;;;;;70.78;33.78;;;;;;;1.03;85.62;101665.31;3342508;81;21291;-73
2022/12/03 21:16:25;;;;;;;65.90;34.30;;;;;;;1.03;85.57;101670.84;3348435;81;21046;-73
2022/12/03 21:21:17;;;;;;;58.15;28.35;;;;;;;1.03;85.65;101675.56;3399926;82;21473;-74
2022/12/03 21:26:18;;;;;;;61.05;30.20;;;;;;;1.02;85.60;101670.33;3408863;81;21583;-74
2022/12/03 21:31:13;;;;;;;63.10;31.52;;;;;;;0.99;85.67;101676.53;3341430;81;20985;-73
2022/12/03 21:36:06;;;;;;;68.10;33.45;;;;;;;0.97;85.76;101672.58;3408000;82;21974;-73
2022/12/03 21:40:57;;;;;;;67.67;32.48;;;;;;;0.97;85.83;101667.83;3321355;82;20950;-73
2022/12/03 21:45:49;;;;;;;59.67;30.35;;;;;;;0.98;85.90;101670.50;3332559;81;20974;-73
2022/12/03 21:50:40;;;;;;;67.03;31.07;;;;;;;0.97;85.92;101660.14;3382784;82;21008;-73
2022/12/03 21:55:31;;;;;;;60.40;28.35;;;;;;;0.96;85.98;101664.38;3300589;84;20983;-73
2022/12/03 22:00:23;;;;;;;66.25;29.42;;;;;;;0.96;86.05;101665.66;3333503;84;21057;-73
2022/12/03 22:05:14;;;;;;;61.30;28.90;;;;;;;0.97;86.04;101680.63;3326118;84;22167;-73
2022/12/03 22:10:09;;;;;;;57.33;28.65;;;;;;;0.98;86.39;101683.30;3362016;84;21022;-73
2022/12/03 22:15:00;;;;;;;60.17;28.83;;;;;;;0.98;86.15;101687.14;3349060;83;21271;-73
2022/12/03 22:19:51;;;;;;;56.05;27.90;;;;;;;0.99;86.18;101687.66;3327545;83;26674;-73
2022/12/03 22:24:44;;;;;;;60.50;30.37;;;;;;;1.00;86.16;101690.70;3310974;83;21137;-73
2022/12/03 22:29:35;;;;;;;58.63;27.85;;;;;;;1.00;86.15;101689.42;3361494;84;21041;-73
2022/12/03 22:34:27;;;;;;;57.15;26.70;;;;;;;1.02;86.22;101689.16;3337711;84;20989;-73
2022/12/03 22:39:17;;;;;;;50.60;24.40;;;;;;;1.00;86.18;101672.77;3283598;85;20990;-73
2022/12/03 22:44:09;;;;;;;44.58;22.75;;;;;;;0.99;86.16;101677.81;3196807;87;27218;-73